AIC5HY VOHS-VABB
Flight info
| Callsign | AIC5HY |
|---|---|
| Flight time | 0h 57m |
| Altitude | 36000 |
| Route | TAMIV5 APUSU W18 OPAKA EMRAK2A |
| Aircraft | B772/H-SDE2E3FGHIJ5LORVWXY/LB1D1 |
Departure
| Time | 2026-04-22 05:14 |
|---|---|
| Airport | Rajiv Gandhi International Airport (VOHS) |
Arrival
| Time | 2026-04-22 06:12 |
|---|---|
| Airport | Chhatrapati Shivaji Maharaj International Airport (VABB) |
| Time | Latitude | Longitude | Altitude | Speed | Heading |
|---|---|---|---|---|---|
| 2026-04-22 04:33 | 17.23416 | 78.42889 | 2005 ft | 0 kts | 0° |
| 2026-04-22 04:57 | 17.23406 | 78.42889 | 2004 ft | 2 kts | 0° |
| 2026-04-22 04:57 | 17.23391 | 78.42889 | 2004 ft | 2 kts | 0° |
| 2026-04-22 04:57 | 17.23375 | 78.42889 | 2005 ft | 2 kts | 0° |
| 2026-04-22 04:57 | 17.23360 | 78.42889 | 2005 ft | 2 kts | 0° |
| 2026-04-22 04:58 | 17.23346 | 78.42887 | 2005 ft | 2 kts | 26° |
| 2026-04-22 04:58 | 17.23334 | 78.42878 | 2005 ft | 2 kts | 54° |
| 2026-04-22 04:58 | 17.23327 | 78.42863 | 2004 ft | 2 kts | 81° |
| 2026-04-22 04:58 | 17.23327 | 78.42857 | 2004 ft | 1 kts | 89° |
| 2026-04-22 04:59 | 17.23327 | 78.42855 | 2004 ft | 0 kts | 88° |
| 2026-04-22 05:03 | 17.23327 | 78.42856 | 2004 ft | 0 kts | 88° |
| 2026-04-22 05:03 | 17.23327 | 78.42876 | 2005 ft | 6 kts | 89° |
| 2026-04-22 05:03 | 17.23329 | 78.42952 | 2008 ft | 13 kts | 89° |
| 2026-04-22 05:04 | 17.23330 | 78.43048 | 2011 ft | 11 kts | 89° |
| 2026-04-22 05:04 | 17.23330 | 78.43115 | 2014 ft | 7 kts | 98° |
| 2026-04-22 05:04 | 17.23297 | 78.43151 | 2015 ft | 8 kts | 159° |
| 2026-04-22 05:04 | 17.23209 | 78.43160 | 2015 ft | 16 kts | 178° |
| 2026-04-22 05:05 | 17.23103 | 78.43182 | 2015 ft | 14 kts | 132° |
| 2026-04-22 05:05 | 17.23088 | 78.43272 | 2018 ft | 12 kts | 90° |
| 2026-04-22 05:05 | 17.23089 | 78.43364 | 2020 ft | 12 kts | 89° |
| 2026-04-22 05:05 | 17.23090 | 78.43459 | 2023 ft | 14 kts | 89° |
| 2026-04-22 05:06 | 17.23091 | 78.43577 | 2026 ft | 18 kts | 89° |
| 2026-04-22 05:06 | 17.23094 | 78.43722 | 2032 ft | 22 kts | 89° |
| 2026-04-22 05:06 | 17.23096 | 78.43894 | 2037 ft | 21 kts | 88° |
| 2026-04-22 05:06 | 17.23098 | 78.44032 | 2041 ft | 16 kts | 89° |
| 2026-04-22 05:07 | 17.23099 | 78.44140 | 2045 ft | 12 kts | 89° |
| 2026-04-22 05:07 | 17.23100 | 78.44233 | 2046 ft | 15 kts | 89° |
| 2026-04-22 05:07 | 17.23102 | 78.44366 | 2047 ft | 19 kts | 89° |
| 2026-04-22 05:07 | 17.23104 | 78.44516 | 2047 ft | 22 kts | 89° |
| 2026-04-22 05:08 | 17.23107 | 78.44695 | 2043 ft | 26 kts | 89° |
| 2026-04-22 05:08 | 17.23110 | 78.44904 | 2034 ft | 29 kts | 89° |
| 2026-04-22 05:08 | 17.23111 | 78.45075 | 2029 ft | 16 kts | 89° |
| 2026-04-22 05:08 | 17.23113 | 78.45187 | 2027 ft | 13 kts | 89° |
| 2026-04-22 05:09 | 17.23115 | 78.45265 | 2025 ft | 0 kts | 90° |
| 2026-04-22 05:09 | 17.23111 | 78.45287 | 2024 ft | 6 kts | 107° |
| 2026-04-22 05:09 | 17.23066 | 78.45319 | 2026 ft | 8 kts | 167° |
| 2026-04-22 05:09 | 17.23041 | 78.45320 | 2027 ft | 0 kts | 180° |
| 2026-04-22 05:11 | 17.23014 | 78.45318 | 2029 ft | 9 kts | 191° |
| 2026-04-22 05:11 | 17.22942 | 78.45283 | 2031 ft | 11 kts | 209° |
| 2026-04-22 05:12 | 17.22913 | 78.45250 | 2032 ft | 8 kts | 256° |
| 2026-04-22 05:12 | 17.22910 | 78.45218 | 2033 ft | 0 kts | 267° |
| 2026-04-22 05:13 | 17.22910 | 78.45216 | 2033 ft | 4 kts | 267° |
| 2026-04-22 05:13 | 17.22906 | 78.44926 | 2040 ft | 74 kts | 269° |
| 2026-04-22 05:13 | 17.22896 | 78.44164 | 2043 ft | 134 kts | 270° |
| 2026-04-22 05:13 | 17.22882 | 78.42998 | 2015 ft | 183 kts | 269° |
| 2026-04-22 05:14 | 17.22865 | 78.41618 | 2346 ft | 195 kts | 270° |
| 2026-04-22 05:14 | 17.22850 | 78.40167 | 2907 ft | 203 kts | 270° |
| 2026-04-22 05:14 | 17.22834 | 78.38691 | 3601 ft | 205 kts | 270° |
| 2026-04-22 05:14 | 17.22812 | 78.37191 | 3904 ft | 217 kts | 270° |
| 2026-04-22 05:15 | 17.22787 | 78.35540 | 4143 ft | 236 kts | 270° |
| 2026-04-22 05:15 | 17.22757 | 78.33725 | 4415 ft | 256 kts | 270° |
| 2026-04-22 05:15 | 17.22961 | 78.31812 | 4716 ft | 272 kts | 285° |
| 2026-04-22 05:15 | 17.23498 | 78.29896 | 5308 ft | 277 kts | 288° |
| 2026-04-22 05:16 | 17.24070 | 78.27978 | 5965 ft | 280 kts | 288° |
| 2026-04-22 05:16 | 17.24645 | 78.26028 | 6580 ft | 284 kts | 288° |
| 2026-04-22 05:16 | 17.25222 | 78.24056 | 7220 ft | 286 kts | 288° |
| 2026-04-22 05:16 | 17.25807 | 78.22049 | 7803 ft | 290 kts | 288° |
| 2026-04-22 05:17 | 17.26397 | 78.20021 | 8376 ft | 293 kts | 288° |
| 2026-04-22 05:17 | 17.26992 | 78.17977 | 8967 ft | 296 kts | 288° |
| 2026-04-22 05:17 | 17.27592 | 78.15919 | 9546 ft | 299 kts | 288° |
| 2026-04-22 05:17 | 17.28192 | 78.13854 | 10123 ft | 302 kts | 288° |
| 2026-04-22 05:18 | 17.29473 | 78.09450 | 10596 ft | 335 kts | 288° |
| 2026-04-22 05:18 | 17.30168 | 78.07058 | 10820 ft | 352 kts | 288° |
| 2026-04-22 05:18 | 17.30902 | 78.04533 | 11037 ft | 369 kts | 288° |
| 2026-04-22 05:19 | 17.31661 | 78.01917 | 11293 ft | 384 kts | 288° |
| 2026-04-22 05:19 | 17.32434 | 77.99252 | 12084 ft | 381 kts | 288° |
| 2026-04-22 05:19 | 17.33185 | 77.96657 | 12886 ft | 378 kts | 288° |
| 2026-04-22 05:19 | 17.33955 | 77.93999 | 13527 ft | 380 kts | 288° |
| 2026-04-22 05:20 | 17.34714 | 77.91376 | 14343 ft | 376 kts | 288° |
| 2026-04-22 05:20 | 17.35458 | 77.88803 | 15066 ft | 375 kts | 288° |
| 2026-04-22 05:20 | 17.36229 | 77.86140 | 15444 ft | 385 kts | 288° |
| 2026-04-22 05:20 | 17.37013 | 77.83431 | 15681 ft | 398 kts | 288° |
| 2026-04-22 05:21 | 17.37826 | 77.80616 | 15927 ft | 411 kts | 288° |
| 2026-04-22 05:21 | 17.38658 | 77.77737 | 16435 ft | 415 kts | 287° |
| 2026-04-22 05:21 | 17.39489 | 77.74855 | 17113 ft | 413 kts | 287° |
| 2026-04-22 05:21 | 17.40308 | 77.72015 | 17728 ft | 413 kts | 287° |
| 2026-04-22 05:22 | 17.41140 | 77.69129 | 18230 ft | 416 kts | 287° |
| 2026-04-22 05:22 | 17.41982 | 77.66205 | 18636 ft | 422 kts | 287° |
| 2026-04-22 05:22 | 17.42832 | 77.63251 | 19104 ft | 425 kts | 286° |
| 2026-04-22 05:22 | 17.43652 | 77.60291 | 19593 ft | 427 kts | 283° |
| 2026-04-22 05:23 | 17.44168 | 77.57203 | 20027 ft | 430 kts | 278° |
| 2026-04-22 05:23 | 17.44875 | 77.54145 | 20427 ft | 435 kts | 288° |
| 2026-04-22 05:23 | 17.46074 | 77.51251 | 20858 ft | 439 kts | 297° |
| 2026-04-22 05:23 | 17.47745 | 77.48570 | 21304 ft | 443 kts | 307° |
| 2026-04-22 05:24 | 17.49858 | 77.46169 | 21700 ft | 449 kts | 316° |
| 2026-04-22 05:24 | 17.52188 | 77.44024 | 22095 ft | 453 kts | 317° |
| 2026-04-22 05:24 | 17.54612 | 77.41839 | 22547 ft | 456 kts | 317° |
| 2026-04-22 05:24 | 17.57024 | 77.39666 | 23010 ft | 459 kts | 317° |
| 2026-04-22 05:25 | 17.59445 | 77.37485 | 23475 ft | 461 kts | 317° |
| 2026-04-22 05:25 | 17.61887 | 77.35283 | 23957 ft | 462 kts | 316° |
| 2026-04-22 05:25 | 17.64298 | 77.33109 | 24402 ft | 464 kts | 316° |
| 2026-04-22 05:25 | 17.66757 | 77.30890 | 24858 ft | 466 kts | 316° |
| 2026-04-22 05:26 | 17.69231 | 77.28657 | 25288 ft | 468 kts | 316° |
| 2026-04-22 05:26 | 17.71686 | 77.26440 | 25684 ft | 470 kts | 316° |
| 2026-04-22 05:26 | 17.74177 | 77.24191 | 26086 ft | 473 kts | 315° |
| 2026-04-22 05:26 | 17.76686 | 77.21922 | 26473 ft | 475 kts | 315° |
| 2026-04-22 05:27 | 17.79193 | 77.19656 | 26833 ft | 478 kts | 315° |
| 2026-04-22 05:27 | 17.81699 | 77.17390 | 27169 ft | 481 kts | 315° |
| 2026-04-22 05:27 | 17.84244 | 77.15088 | 27556 ft | 482 kts | 315° |
| 2026-04-22 05:27 | 17.86794 | 77.12779 | 27917 ft | 484 kts | 315° |
| 2026-04-22 05:28 | 17.89359 | 77.10458 | 28285 ft | 486 kts | 315° |
| 2026-04-22 05:28 | 17.91914 | 77.08143 | 28614 ft | 488 kts | 314° |
| 2026-04-22 05:28 | 17.94473 | 77.05825 | 28923 ft | 491 kts | 314° |
| 2026-04-22 05:28 | 17.97051 | 77.03488 | 29233 ft | 492 kts | 314° |
| 2026-04-22 05:29 | 17.99680 | 77.01104 | 29548 ft | 494 kts | 314° |
| 2026-04-22 05:29 | 18.02276 | 76.98749 | 29828 ft | 496 kts | 314° |
| 2026-04-22 05:29 | 18.04888 | 76.96378 | 30172 ft | 497 kts | 313° |
| 2026-04-22 05:29 | 18.07479 | 76.94027 | 30562 ft | 496 kts | 313° |
| 2026-04-22 05:30 | 18.10096 | 76.91650 | 30901 ft | 496 kts | 313° |
| 2026-04-22 05:30 | 18.12720 | 76.89266 | 31161 ft | 497 kts | 312° |
| 2026-04-22 05:30 | 18.15319 | 76.86903 | 31381 ft | 499 kts | 312° |
| 2026-04-22 05:30 | 18.17951 | 76.84509 | 31603 ft | 501 kts | 312° |
| 2026-04-22 05:31 | 18.20617 | 76.82084 | 31898 ft | 501 kts | 312° |
| 2026-04-22 05:31 | 18.23254 | 76.79685 | 32211 ft | 500 kts | 311° |
| 2026-04-22 05:31 | 18.25868 | 76.77306 | 32538 ft | 499 kts | 311° |
| 2026-04-22 05:31 | 18.28471 | 76.74935 | 32804 ft | 499 kts | 311° |
| 2026-04-22 05:32 | 18.31123 | 76.72519 | 33096 ft | 499 kts | 311° |
| 2026-04-22 05:32 | 18.33728 | 76.70145 | 33362 ft | 500 kts | 311° |
| 2026-04-22 05:32 | 18.36369 | 76.67735 | 33652 ft | 500 kts | 311° |
| 2026-04-22 05:32 | 18.39004 | 76.65333 | 34002 ft | 499 kts | 311° |
| 2026-04-22 05:33 | 18.41616 | 76.62949 | 34340 ft | 498 kts | 310° |
| 2026-04-22 05:33 | 18.44300 | 76.60499 | 34650 ft | 497 kts | 310° |
| 2026-04-22 05:33 | 18.46922 | 76.58105 | 34939 ft | 497 kts | 310° |
| 2026-04-22 05:33 | 18.49546 | 76.55708 | 35303 ft | 495 kts | 310° |
| 2026-04-22 05:34 | 18.52162 | 76.53317 | 35614 ft | 493 kts | 310° |
| 2026-04-22 05:34 | 18.54757 | 76.50944 | 35899 ft | 492 kts | 310° |
| 2026-04-22 05:34 | 18.57365 | 76.48557 | 36003 ft | 494 kts | 310° |
| 2026-04-22 05:34 | 18.59938 | 76.46201 | 36010 ft | 494 kts | 310° |
| 2026-04-22 05:35 | 18.65119 | 76.41457 | 36010 ft | 493 kts | 310° |
| 2026-04-22 05:35 | 18.70313 | 76.36694 | 36013 ft | 493 kts | 310° |
| 2026-04-22 05:36 | 18.75486 | 76.31950 | 36034 ft | 491 kts | 310° |
| 2026-04-22 05:36 | 18.80578 | 76.27281 | 36020 ft | 476 kts | 309° |
| 2026-04-22 05:37 | 18.85515 | 76.22747 | 36015 ft | 472 kts | 310° |
| 2026-04-22 05:37 | 18.90508 | 76.18153 | 36010 ft | 474 kts | 309° |
| 2026-04-22 05:38 | 18.95451 | 76.13602 | 35991 ft | 473 kts | 309° |
| 2026-04-22 05:38 | 19.00416 | 76.09025 | 35998 ft | 475 kts | 310° |
| 2026-04-22 05:39 | 19.05406 | 76.04423 | 35991 ft | 473 kts | 310° |
| 2026-04-22 05:39 | 19.10371 | 75.99844 | 35988 ft | 470 kts | 310° |
| 2026-04-22 05:40 | 19.15476 | 75.95130 | 35973 ft | 461 kts | 309° |
| 2026-04-22 05:40 | 19.20319 | 75.90659 | 35977 ft | 452 kts | 309° |
| 2026-04-22 05:41 | 19.25067 | 75.86260 | 35974 ft | 457 kts | 309° |
| 2026-04-22 05:41 | 19.29866 | 75.81813 | 35976 ft | 459 kts | 309° |
| 2026-04-22 05:42 | 19.34634 | 75.77393 | 35976 ft | 456 kts | 309° |
| 2026-04-22 05:42 | 19.39405 | 75.72965 | 35983 ft | 458 kts | 310° |
| 2026-04-22 05:43 | 19.44191 | 75.68488 | 35962 ft | 453 kts | 307° |
| 2026-04-22 05:43 | 19.46278 | 75.66035 | 35968 ft | 442 kts | 298° |
| 2026-04-22 05:43 | 19.47983 | 75.63332 | 35971 ft | 435 kts | 290° |
| 2026-04-22 05:44 | 19.50176 | 75.57491 | 35975 ft | 420 kts | 275° |
| 2026-04-22 05:44 | 19.51010 | 75.51479 | 35989 ft | 406 kts | 269° |
| 2026-04-22 05:45 | 19.51634 | 75.45557 | 35994 ft | 409 kts | 269° |
| 2026-04-22 05:45 | 19.52253 | 75.39547 | 35998 ft | 406 kts | 269° |
| 2026-04-22 05:46 | 19.52871 | 75.33465 | 35936 ft | 399 kts | 269° |
| 2026-04-22 05:46 | 19.53166 | 75.30591 | 35337 ft | 392 kts | 268° |
| 2026-04-22 05:46 | 19.53447 | 75.27697 | 34571 ft | 405 kts | 268° |
| 2026-04-22 05:47 | 19.53437 | 75.24715 | 34397 ft | 406 kts | 259° |
| 2026-04-22 05:47 | 19.53012 | 75.21742 | 34405 ft | 408 kts | 255° |
| 2026-04-22 05:47 | 19.51970 | 75.15797 | 34421 ft | 417 kts | 255° |
| 2026-04-22 05:48 | 19.50890 | 75.09671 | 34413 ft | 428 kts | 255° |
| 2026-04-22 05:48 | 19.50338 | 75.06549 | 34084 ft | 439 kts | 255° |
| 2026-04-22 05:48 | 19.49776 | 75.03374 | 33442 ft | 447 kts | 256° |
| 2026-04-22 05:49 | 19.49205 | 75.00144 | 32739 ft | 446 kts | 256° |
| 2026-04-22 05:49 | 19.48632 | 74.96904 | 32037 ft | 448 kts | 257° |
| 2026-04-22 05:49 | 19.48053 | 74.93638 | 31288 ft | 461 kts | 257° |
| 2026-04-22 05:49 | 19.47454 | 74.90267 | 30579 ft | 471 kts | 257° |
| 2026-04-22 05:50 | 19.46854 | 74.86883 | 30129 ft | 468 kts | 257° |
| 2026-04-22 05:50 | 19.46253 | 74.83498 | 29655 ft | 468 kts | 257° |
| 2026-04-22 05:50 | 19.45654 | 74.80128 | 29150 ft | 471 kts | 258° |
| 2026-04-22 05:50 | 19.45052 | 74.76745 | 28622 ft | 471 kts | 258° |
| 2026-04-22 05:51 | 19.44446 | 74.73334 | 28085 ft | 466 kts | 258° |
| 2026-04-22 05:51 | 19.43849 | 74.69983 | 27570 ft | 461 kts | 258° |
| 2026-04-22 05:51 | 19.43263 | 74.66700 | 27070 ft | 457 kts | 258° |
| 2026-04-22 05:51 | 19.42675 | 74.63409 | 26567 ft | 453 kts | 258° |
| 2026-04-22 05:52 | 19.42089 | 74.60131 | 26062 ft | 451 kts | 258° |
| 2026-04-22 05:52 | 19.41508 | 74.56883 | 25561 ft | 448 kts | 258° |
| 2026-04-22 05:52 | 19.40931 | 74.53666 | 25065 ft | 446 kts | 258° |
| 2026-04-22 05:52 | 19.40357 | 74.50468 | 24570 ft | 444 kts | 258° |
| 2026-04-22 05:53 | 19.39785 | 74.47282 | 24065 ft | 441 kts | 258° |
| 2026-04-22 05:53 | 19.39216 | 74.44117 | 23545 ft | 437 kts | 259° |
| 2026-04-22 05:53 | 19.38653 | 74.40986 | 23048 ft | 433 kts | 258° |
| 2026-04-22 05:53 | 19.38086 | 74.37837 | 22542 ft | 430 kts | 259° |
| 2026-04-22 05:54 | 19.37527 | 74.34741 | 22051 ft | 428 kts | 258° |
| 2026-04-22 05:54 | 19.36979 | 74.31701 | 21559 ft | 424 kts | 259° |
| 2026-04-22 05:54 | 19.36425 | 74.28638 | 21053 ft | 422 kts | 259° |
| 2026-04-22 05:54 | 19.35875 | 74.25599 | 20550 ft | 418 kts | 259° |
| 2026-04-22 05:55 | 19.35330 | 74.22589 | 20046 ft | 415 kts | 259° |
| 2026-04-22 05:55 | 19.34792 | 74.19619 | 19536 ft | 411 kts | 259° |
| 2026-04-22 05:55 | 19.34255 | 74.16661 | 19032 ft | 408 kts | 259° |
| 2026-04-22 05:55 | 19.33721 | 74.13718 | 18519 ft | 405 kts | 259° |
| 2026-04-22 05:56 | 19.33193 | 74.10814 | 18007 ft | 402 kts | 259° |
| 2026-04-22 05:56 | 19.32672 | 74.07951 | 17504 ft | 398 kts | 259° |
| 2026-04-22 05:56 | 19.32150 | 74.05083 | 16995 ft | 395 kts | 259° |
| 2026-04-22 05:56 | 19.31629 | 74.02223 | 16487 ft | 395 kts | 259° |
| 2026-04-22 05:57 | 19.31112 | 73.99387 | 16109 ft | 389 kts | 259° |
| 2026-04-22 05:57 | 19.30600 | 73.96586 | 16059 ft | 390 kts | 258° |
| 2026-04-22 05:57 | 19.30090 | 73.93793 | 16064 ft | 393 kts | 258° |
| 2026-04-22 05:57 | 19.29568 | 73.90941 | 16049 ft | 391 kts | 259° |
| 2026-04-22 05:58 | 19.29053 | 73.88129 | 15987 ft | 382 kts | 258° |
| 2026-04-22 05:58 | 19.28551 | 73.85385 | 15276 ft | 379 kts | 258° |
| 2026-04-22 05:58 | 19.28030 | 73.82548 | 14246 ft | 384 kts | 258° |
| 2026-04-22 05:58 | 19.27521 | 73.79778 | 13452 ft | 382 kts | 258° |
| 2026-04-22 05:59 | 19.27021 | 73.77052 | 12809 ft | 375 kts | 258° |
| 2026-04-22 05:59 | 19.26533 | 73.74400 | 12111 ft | 371 kts | 258° |
| 2026-04-22 05:59 | 19.26043 | 73.71737 | 11450 ft | 366 kts | 258° |
| 2026-04-22 05:59 | 19.25562 | 73.69123 | 11117 ft | 352 kts | 258° |
| 2026-04-22 06:00 | 19.24969 | 73.66690 | 10801 ft | 338 kts | 251° |
| 2026-04-22 06:00 | 19.24231 | 73.64371 | 10554 ft | 324 kts | 250° |
| 2026-04-22 06:00 | 19.23517 | 73.62154 | 10405 ft | 310 kts | 250° |
| 2026-04-22 06:00 | 19.22842 | 73.60046 | 10259 ft | 297 kts | 250° |
| 2026-04-22 06:01 | 19.22189 | 73.58011 | 10119 ft | 285 kts | 250° |
| 2026-04-22 06:01 | 19.21562 | 73.56067 | 9969 ft | 274 kts | 250° |
| 2026-04-22 06:01 | 19.20939 | 73.54127 | 9670 ft | 288 kts | 250° |
| 2026-04-22 06:01 | 19.20290 | 73.52110 | 9301 ft | 290 kts | 250° |
| 2026-04-22 06:02 | 19.19640 | 73.50092 | 8950 ft | 289 kts | 250° |
| 2026-04-22 06:02 | 19.18991 | 73.48080 | 8649 ft | 288 kts | 250° |
| 2026-04-22 06:02 | 19.18348 | 73.46105 | 8372 ft | 285 kts | 250° |
| 2026-04-22 06:02 | 19.17694 | 73.44106 | 8272 ft | 283 kts | 250° |
| 2026-04-22 06:03 | 19.17047 | 73.42136 | 8239 ft | 284 kts | 250° |
| 2026-04-22 06:03 | 19.16405 | 73.40169 | 8234 ft | 284 kts | 250° |
| 2026-04-22 06:03 | 19.15765 | 73.38206 | 8178 ft | 279 kts | 250° |
| 2026-04-22 06:03 | 19.15132 | 73.36264 | 7742 ft | 283 kts | 250° |
| 2026-04-22 06:04 | 19.14482 | 73.34293 | 7370 ft | 282 kts | 250° |
| 2026-04-22 06:04 | 19.13835 | 73.32359 | 7051 ft | 280 kts | 250° |
| 2026-04-22 06:04 | 19.13181 | 73.30421 | 6664 ft | 280 kts | 250° |
| 2026-04-22 06:04 | 19.12527 | 73.28500 | 6316 ft | 279 kts | 250° |
| 2026-04-22 06:05 | 19.11866 | 73.26574 | 6022 ft | 277 kts | 250° |
| 2026-04-22 06:05 | 19.11210 | 73.24672 | 5674 ft | 277 kts | 250° |
| 2026-04-22 06:05 | 19.10687 | 73.22716 | 5298 ft | 276 kts | 263° |
| 2026-04-22 06:05 | 19.10499 | 73.20715 | 4955 ft | 274 kts | 266° |
| 2026-04-22 06:06 | 19.10322 | 73.18729 | 4650 ft | 272 kts | 265° |
| 2026-04-22 06:06 | 19.10132 | 73.16724 | 4290 ft | 271 kts | 266° |
| 2026-04-22 06:06 | 19.09959 | 73.14762 | 4021 ft | 267 kts | 266° |
| 2026-04-22 06:06 | 19.09764 | 73.12858 | 3974 ft | 253 kts | 264° |
| 2026-04-22 06:07 | 19.09535 | 73.11062 | 3972 ft | 239 kts | 264° |
| 2026-04-22 06:07 | 19.09341 | 73.09356 | 3950 ft | 237 kts | 266° |
| 2026-04-22 06:07 | 19.09226 | 73.07586 | 3639 ft | 242 kts | 269° |
| 2026-04-22 06:07 | 19.09169 | 73.05811 | 3339 ft | 241 kts | 271° |
| 2026-04-22 06:08 | 19.09130 | 73.04066 | 3031 ft | 232 kts | 271° |
| 2026-04-22 06:08 | 19.09099 | 73.02402 | 2734 ft | 224 kts | 271° |
| 2026-04-22 06:08 | 19.09072 | 73.00782 | 2442 ft | 214 kts | 272° |
| 2026-04-22 06:08 | 19.09055 | 72.99300 | 2174 ft | 195 kts | 272° |
| 2026-04-22 06:09 | 19.09032 | 72.97917 | 1918 ft | 180 kts | 272° |
| 2026-04-22 06:09 | 19.09010 | 72.96663 | 1684 ft | 166 kts | 272° |
| 2026-04-22 06:09 | 19.08993 | 72.95479 | 1484 ft | 154 kts | 272° |
| 2026-04-22 06:09 | 19.08978 | 72.94382 | 1285 ft | 148 kts | 273° |
| 2026-04-22 06:10 | 19.08963 | 72.93278 | 1071 ft | 149 kts | 272° |
| 2026-04-22 06:10 | 19.08947 | 72.92194 | 879 ft | 147 kts | 271° |
| 2026-04-22 06:10 | 19.08932 | 72.91112 | 676 ft | 147 kts | 271° |
| 2026-04-22 06:10 | 19.08917 | 72.90046 | 486 ft | 144 kts | 270° |
| 2026-04-22 06:11 | 19.08902 | 72.88979 | 306 ft | 143 kts | 270° |
| 2026-04-22 06:11 | 19.08891 | 72.87921 | 118 ft | 143 kts | 269° |
| 2026-04-22 06:11 | 19.08880 | 72.86906 | 40 ft | 128 kts | 269° |
| 2026-04-22 06:11 | 19.08861 | 72.86118 | 40 ft | 85 kts | 269° |
| 2026-04-22 06:12 | 19.08854 | 72.85656 | 36 ft | 39 kts | 269° |
| 2026-04-22 06:12 | 19.08884 | 72.85389 | 33 ft | 30 kts | 289° |
| 2026-04-22 06:12 | 19.08940 | 72.85261 | 32 ft | 11 kts | 304° |
| 2026-04-22 06:12 | 19.09001 | 72.85229 | 32 ft | 8 kts | 27° |
| 2026-04-22 06:13 | 19.09020 | 72.85286 | 33 ft | 8 kts | 86° |
| 2026-04-22 06:13 | 19.09023 | 72.85357 | 33 ft | 10 kts | 88° |
| 2026-04-22 06:13 | 19.09025 | 72.85455 | 34 ft | 15 kts | 90° |
| 2026-04-22 06:13 | 19.09026 | 72.85589 | 36 ft | 20 kts | 89° |
| 2026-04-22 06:14 | 19.09029 | 72.85743 | 38 ft | 20 kts | 89° |
| 2026-04-22 06:14 | 19.09031 | 72.85890 | 39 ft | 20 kts | 89° |
| 2026-04-22 06:14 | 19.09033 | 72.86039 | 40 ft | 19 kts | 89° |
| 2026-04-22 06:14 | 19.09035 | 72.86181 | 41 ft | 19 kts | 89° |
| 2026-04-22 06:15 | 19.09038 | 72.86326 | 41 ft | 19 kts | 89° |
| 2026-04-22 06:15 | 19.09041 | 72.86475 | 41 ft | 22 kts | 89° |
| 2026-04-22 06:15 | 19.09042 | 72.86654 | 41 ft | 26 kts | 90° |
| 2026-04-22 06:15 | 19.09044 | 72.86855 | 40 ft | 26 kts | 89° |
| 2026-04-22 06:16 | 19.09047 | 72.87043 | 38 ft | 24 kts | 89° |
| 2026-04-22 06:16 | 19.09048 | 72.87192 | 38 ft | 14 kts | 87° |
| 2026-04-22 06:16 | 19.09105 | 72.87260 | 38 ft | 12 kts | 12° |
| 2026-04-22 06:16 | 19.09186 | 72.87260 | 40 ft | 10 kts | 346° |
| 2026-04-22 06:17 | 19.09252 | 72.87238 | 40 ft | 9 kts | 342° |
| 2026-04-22 06:17 | 19.09301 | 72.87221 | 41 ft | 4 kts | 342° |
| 2026-04-22 06:17 | 19.09325 | 72.87212 | 41 ft | 2 kts | 340° |
| 2026-04-22 06:17 | 19.09328 | 72.87212 | 41 ft | 0 kts | 340° |